Time;durP1;ratioP1;P1;durP2;ratioP2;P2;SDS_P1;SDS_P2;PMS_P1;PMS_P2;Temp;Humidity;BMP_temperature;BMP_pressure;BME280_temperature;BME280_humidity;BME280_pressure;Samples;Min_cycle;Max_cycle;Signal;HPM_P1;HPM_P2
2022/12/19 03:46:23;;;;;;;41.10;14.23;;;0.50;94.40;;;;;;5987328;23;88485;31
2022/12/19 03:48:53;;;;;;;44.63;14.48;;;0.60;94.40;;;;;;4851296;29;91117;-85
2022/12/19 03:51:35;;;;;;;39.65;13.45;;;0.60;94.20;;;;;;4852936;29;88252;-84
2022/12/19 03:54:27;;;;;;;40.95;13.63;;;0.80;94.10;;;;;;4856574;28;86599;-85
2022/12/19 03:57:06;;;;;;;45.72;14.45;;;0.90;93.80;;;;;;4881288;28;87200;-83
2022/12/19 03:59:53;;;;;;;41.63;14.02;;;0.90;93.80;;;;;;4856170;29;87716;-84
2022/12/19 04:02:21;;;;;;;43.45;13.07;;;0.90;93.70;;;;;;4851258;29;87722;-85
2022/12/19 04:04:53;;;;;;;43.40;13.40;;;0.90;93.60;;;;;;4856055;28;86819;-83
2022/12/19 04:07:19;;;;;;;38.65;13.50;;;0.80;93.60;;;;;;4887996;28;85878;-85
2022/12/19 04:09:46;;;;;;;40.72;14.20;;;0.80;93.60;;;;;;4860537;29;90357;-84
2022/12/19 04:12:21;;;;;;;35.42;12.70;;;0.80;93.60;;;;;;4850553;29;87533;-81
2022/12/19 04:14:49;;;;;;;33.67;13.07;;;0.90;93.40;;;;;;4854085;29;87824;-79
2022/12/19 04:17:41;;;;;;;36.80;13.27;;;1.00;93.60;;;;;;4849682;29;86316;-80
2022/12/19 04:20:12;;;;;;;35.25;12.98;;;1.10;93.10;;;;;;4854397;29;87277;-81
2022/12/19 04:22:51;;;;;;;38.80;13.20;;;1.00;92.90;;;;;;4864621;29;87068;-80
2022/12/19 04:25:21;;;;;;;36.75;12.65;;;1.00;93.30;;;;;;4865915;29;86301;-80
2022/12/19 04:27:52;;;;;;;39.20;13.18;;;1.10;93.30;;;;;;4861681;28;86352;-79
2022/12/19 04:30:18;;;;;;;37.97;13.90;;;1.00;93.50;;;;;;4859687;28;87625;-80
2022/12/19 04:32:45;;;;;;;37.78;13.13;;;1.00;93.70;;;;;;4849752;29;87256;-83
2022/12/19 04:35:11;;;;;;;40.30;13.77;;;1.10;94.00;;;;;;4861246;28;86903;-82
2022/12/19 04:37:37;;;;;;;39.35;13.98;;;1.20;93.60;;;;;;4885139;28;86800;-83
2022/12/19 04:40:04;;;;;;;34.60;13.02;;;1.20;93.10;;;;;;4889411;28;89300;-82
2022/12/19 04:42:29;;;;;;;34.40;12.73;;;1.20;93.00;;;;;;4847013;29;87614;-82
2022/12/19 04:44:56;;;;;;;35.88;12.85;;;1.20;93.10;;;;;;4856568;29;86650;-82
2022/12/19 04:47:22;;;;;;;35.03;13.88;;;1.10;93.20;;;;;;4873408;28;86392;-82
2022/12/19 04:49:48;;;;;;;39.47;13.70;;;1.10;93.20;;;;;;4881728;28;89036;-83
2022/12/19 04:52:14;;;;;;;32.50;12.55;;;1.10;93.50;;;;;;4885582;28;87176;-82
2022/12/19 04:54:39;;;;;;;30.65;12.38;;;1.20;93.00;;;;;;4913126;28;86341;-80
2022/12/19 04:57:05;;;;;;;32.10;12.10;;;1.20;93.10;;;;;;4903630;28;85803;-80
2022/12/19 04:59:31;;;;;;;33.28;12.55;;;1.20;92.80;;;;;;4918186;28;87391;-82
2022/12/19 05:01:57;;;;;;;33.88;11.65;;;1.30;92.70;;;;;;4898520;28;87631;-81
2022/12/19 05:04:23;;;;;;;36.38;13.00;;;1.30;93.00;;;;;;4878382;28;87977;-80
2022/12/19 05:06:48;;;;;;;36.97;12.82;;;1.40;93.00;;;;;;4893761;28;86417;-82
2022/12/19 05:09:14;;;;;;;36.40;13.63;;;1.50;92.70;;;;;;4892302;28;87751;-83
2022/12/19 05:11:40;;;;;;;32.25;12.52;;;1.50;92.40;;;;;;4898368;28;87574;-80
2022/12/19 05:14:06;;;;;;;33.47;12.93;;;1.40;92.60;;;;;;4889212;28;86967;-82
2022/12/19 05:16:32;;;;;;;37.50;13.25;;;1.50;92.80;;;;;;4891498;28;86525;-82
2022/12/19 05:18:57;;;;;;;32.80;12.18;;;1.50;93.10;;;;;;4893373;28;87682;-82
2022/12/19 05:21:23;;;;;;;35.03;13.10;;;1.50;92.90;;;;;;4889966;28;87017;-84
2022/12/19 05:23:50;;;;;;;33.05;12.38;;;1.60;92.90;;;;;;4897731;28;86343;-82
2022/12/19 05:26:16;;;;;;;35.42;13.07;;;1.60;92.80;;;;;;4890789;28;86286;-81
2022/12/19 05:28:42;;;;;;;35.97;11.63;;;1.60;92.80;;;;;;4898233;28;88243;-80
2022/12/19 05:31:13;;;;;;;38.08;12.75;;;1.60;92.80;;;;;;4896765;28;87712;-80
2022/12/19 05:33:40;;;;;;;34.30;12.60;;;1.70;92.60;;;;;;4897323;28;87064;-82
2022/12/19 05:36:07;;;;;;;35.72;13.18;;;1.60;92.70;;;;;;4900368;28;86308;-82
2022/12/19 05:38:33;;;;;;;35.30;12.48;;;1.60;92.80;;;;;;4873914;28;88693;-80
2022/12/19 05:41:04;;;;;;;39.83;13.82;;;1.60;92.90;;;;;;4899179;28;86629;-83
2022/12/19 05:43:30;;;;;;;37.03;12.63;;;1.60;93.10;;;;;;4901583;28;86665;-81
2022/12/19 05:45:56;;;;;;;30.50;12.18;;;1.50;93.10;;;;;;4893543;28;85900;-81
2022/12/19 05:48:22;;;;;;;35.22;12.30;;;1.60;93.50;;;;;;4892856;28;86656;-80
2022/12/19 05:50:50;;;;;;;32.85;12.00;;;1.70;93.40;;;;;;4898258;28;87508;-80
2022/12/19 05:53:17;;;;;;;32.58;11.63;;;1.70;93.30;;;;;;4890339;28;87228;-83
2022/12/19 05:55:43;;;;;;;26.08;10.43;;;1.80;93.10;;;;;;4895023;28;86730;-80
2022/12/19 05:58:09;;;;;;;25.50;9.52;;;1.80;93.10;;;;;;4877678;28;87746;-81
2022/12/19 06:00:34;;;;;;;27.83;10.60;;;1.90;92.90;;;;;;4901948;28;87497;-81
2022/12/19 06:03:00;;;;;;;32.78;11.68;;;1.90;92.90;;;;;;4899947;28;86574;-82
2022/12/19 06:05:26;;;;;;;30.80;12.18;;;1.90;92.70;;;;;;4916547;28;86322;-84
2022/12/19 06:07:51;;;;;;;32.42;11.45;;;1.90;92.70;;;;;;4896609;28;87810;-80
2022/12/19 06:10:17;;;;;;;33.13;12.30;;;1.80;92.90;;;;;;4898615;28;87496;-82
2022/12/19 06:12:43;;;;;;;32.83;12.10;;;1.80;93.20;;;;;;4891641;28;87723;-80
2022/12/19 06:15:09;;;;;;;31.38;12.40;;;1.80;93.00;;;;;;4894190;28;86641;-81
2022/12/19 06:17:34;;;;;;;33.42;11.63;;;1.60;93.00;;;;;;4905553;28;88696;-79
2022/12/19 06:20:00;;;;;;;31.10;12.60;;;1.60;93.30;;;;;;4892060;28;88092;-78
2022/12/19 06:22:26;;;;;;;34.50;12.35;;;1.50;93.50;;;;;;4903866;28;86686;-79
2022/12/19 06:24:51;;;;;;;32.20;12.50;;;1.40;93.50;;;;;;4892861;28;86774;-78
2022/12/19 06:27:17;;;;;;;31.58;12.63;;;1.40;93.70;;;;;;4896806;28;86982;-79
2022/12/19 06:29:43;;;;;;;32.88;12.75;;;1.30;93.90;;;;;;4896837;28;87059;-81
2022/12/19 06:32:08;;;;;;;35.70;12.00;;;1.30;94.20;;;;;;4904480;28;87018;-78
2022/12/19 06:34:34;;;;;;;32.38;11.85;;;1.30;94.30;;;;;;4893269;28;85934;-80
2022/12/19 06:37:00;;;;;;;30.08;12.10;;;1.40;94.40;;;;;;4900870;28;86739;-79
2022/12/19 06:39:25;;;;;;;32.10;11.75;;;1.60;94.40;;;;;;4898949;28;86819;-78
2022/12/19 06:44:35;;;;;;;32.53;12.85;;;1.80;94.00;;;;;;4898895;28;86224;-78
2022/12/19 06:47:00;;;;;;;28.30;11.50;;;1.90;94.00;;;;;;4896242;28;86861;-79
2022/12/19 06:49:26;;;;;;;30.73;11.70;;;2.10;93.70;;;;;;4902126;28;87469;-78
2022/12/19 06:51:52;;;;;;;30.85;12.27;;;2.10;93.00;;;;;;4899862;28;86979;-78
2022/12/19 06:54:17;;;;;;;39.38;14.85;;;2.00;93.00;;;;;;4895463;28;86775;-78
2022/12/19 06:56:43;;;;;;;33.85;12.88;;;2.10;93.50;;;;;;4893967;28;87378;-78
2022/12/19 06:59:14;;;;;;;32.70;11.90;;;2.20;93.50;;;;;;4899906;28;86701;-78
2022/12/19 07:01:58;;;;;;;31.02;11.45;;;2.30;93.20;;;;;;4903301;28;88132;-78
2022/12/19 07:04:34;;;;;;;33.67;11.77;;;2.40;92.90;;;;;;4904071;28;86246;-78
2022/12/19 07:07:00;;;;;;;34.28;12.18;;;2.40;93.10;;;;;;4905290;28;88741;-79
2022/12/19 07:09:28;;;;;;;29.13;11.10;;;2.50;92.50;;;;;;4892022;28;88405;-80
2022/12/19 07:11:54;;;;;;;31.65;12.48;;;2.50;92.80;;;;;;4897791;28;86809;-79
2022/12/19 07:14:19;;;;;;;35.75;12.85;;;2.50;92.80;;;;;;4899340;28;86366;-78
2022/12/19 07:16:47;;;;;;;32.25;12.90;;;2.60;92.80;;;;;;4895072;28;87701;-83
2022/12/19 07:19:13;;;;;;;30.88;11.77;;;2.60;92.50;;;;;;4887902;28;86800;-82
2022/12/19 07:21:40;;;;;;;30.90;12.63;;;2.70;92.40;;;;;;4896687;28;86153;-79
2022/12/19 07:24:06;;;;;;;36.67;13.40;;;2.70;92.10;;;;;;4894539;28;85592;-78
2022/12/19 07:26:32;;;;;;;32.20;12.85;;;2.70;92.10;;;;;;4877531;28;88873;-78
2022/12/19 07:28:59;;;;;;;32.10;12.82;;;2.70;91.90;;;;;;4897796;28;87129;-79
2022/12/19 07:31:24;;;;;;;35.50;13.68;;;2.70;92.10;;;;;;4896674;28;87042;-82
2022/12/19 07:33:50;;;;;;;36.60;13.68;;;2.70;92.00;;;;;;4899230;28;86785;-79
2022/12/19 07:36:16;;;;;;;32.40;13.15;;;2.70;92.20;;;;;;4890510;28;87710;-79
2022/12/19 07:38:41;;;;;;;33.63;13.77;;;2.60;92.30;;;;;;4900138;28;87512;-79
2022/12/19 07:41:07;;;;;;;35.65;13.07;;;2.60;92.70;;;;;;4895003;28;86254;-79
2022/12/19 07:43:33;;;;;;;37.20;14.48;;;2.60;92.80;;;;;;4882836;28;86515;-78
2022/12/19 07:45:58;;;;;;;37.88;14.10;;;2.60;92.50;;;;;;4888319;28;87356;-79
2022/12/19 07:48:24;;;;;;;36.17;13.57;;;2.50;92.70;;;;;;4896980;28;87496;-78
2022/12/19 07:50:50;;;;;;;37.72;14.00;;;2.40;92.80;;;;;;4890939;28;87062;-77
2022/12/19 07:53:16;;;;;;;31.10;12.75;;;2.40;92.70;;;;;;4902317;28;87480;-77
2022/12/19 07:55:41;;;;;;;30.88;12.77;;;2.30;92.70;;;;;;4881593;28;90221;-80
2022/12/19 07:58:10;;;;;;;32.88;12.63;;;2.30;93.00;;;;;;4895889;28;88425;-79
2022/12/19 08:00:36;;;;;;;34.22;12.75;;;2.30;93.00;;;;;;4888353;28;86186;-77
2022/12/19 08:03:02;;;;;;;32.45;13.07;;;2.30;92.80;;;;;;4889102;28;86168;-80
2022/12/19 08:05:28;;;;;;;32.65;11.88;;;2.30;92.90;;;;;;4902120;28;87084;-79
2022/12/19 08:07:54;;;;;;;30.67;12.13;;;2.30;93.00;;;;;;4884831;28;89600;-78
2022/12/19 08:10:21;;;;;;;32.17;12.18;;;2.30;93.10;;;;;;4903387;28;86316;-80
2022/12/19 08:12:47;;;;;;;30.98;12.52;;;2.40;93.10;;;;;;4890131;28;85934;-79
2022/12/19 08:15:13;;;;;;;28.73;11.45;;;2.60;93.30;;;;;;4891539;28;86535;-80
2022/12/19 08:17:39;;;;;;;29.73;11.57;;;2.80;93.40;;;;;;4901977;28;87423;-78
2022/12/19 08:20:06;;;;;;;29.80;12.45;;;3.00;92.70;;;;;;4886575;28;87110;-78
2022/12/19 08:22:32;;;;;;;28.67;11.50;;;3.20;92.50;;;;;;4899719;28;86668;-79
2022/12/19 08:24:58;;;;;;;27.33;11.07;;;3.30;92.50;;;;;;4893888;28;87114;-79
2022/12/19 08:27:24;;;;;;;25.90;10.23;;;3.40;92.20;;;;;;4903228;28;87525;-79
2022/12/19 08:29:50;;;;;;;29.08;11.15;;;3.50;91.90;;;;;;4886159;28;86385;-80
2022/12/19 08:32:17;;;;;;;27.58;11.43;;;3.70;91.80;;;;;;4892011;28;86327;-84
2022/12/19 08:34:42;;;;;;;33.47;12.43;;;3.90;91.20;;;;;;4903657;28;86853;-80
2022/12/19 08:37:09;;;;;;;29.75;12.68;;;4.00;91.10;;;;;;4904243;28;86491;-79
2022/12/19 08:39:35;;;;;;;30.45;12.60;;;4.10;90.60;;;;;;4901435;28;86626;-78
2022/12/19 08:42:01;;;;;;;31.58;12.77;;;4.20;89.80;;;;;;4898352;28;86856;-78
2022/12/19 08:44:26;;;;;;;31.17;12.65;;;4.30;90.10;;;;;;4901533;28;88304;-81
2022/12/19 08:46:52;;;;;;;32.95;12.80;;;4.40;89.60;;;;;;4893041;28;87226;-78
2022/12/19 08:49:18;;;;;;;34.55;12.98;;;4.40;89.30;;;;;;4891771;28;86178;-79
2022/12/19 08:51:45;;;;;;;33.28;13.60;;;4.60;88.50;;;;;;4905131;28;86865;-81
2022/12/19 08:54:11;;;;;;;33.85;13.50;;;4.70;87.50;;;;;;4890893;28;87317;-79
2022/12/19 08:56:37;;;;;;;31.40;13.85;;;4.60;87.10;;;;;;4885809;28;86514;-79
2022/12/19 08:59:03;;;;;;;33.83;13.82;;;4.70;88.20;;;;;;4886109;28;86150;-79
2022/12/19 09:01:29;;;;;;;34.53;15.13;;;4.80;86.90;;;;;;4891122;28;85664;-79
2022/12/19 09:03:58;;;;;;;31.70;13.43;;;5.00;87.40;;;;;;4894410;28;87666;-79
2022/12/19 09:06:25;;;;;;;34.47;13.32;;;5.10;86.40;;;;;;4890660;28;87027;-78
2022/12/19 09:08:51;;;;;;;34.60;14.45;;;5.10;86.50;;;;;;4901130;28;87110;-81
2022/12/19 09:11:18;;;;;;;37.63;15.40;;;5.20;86.30;;;;;;4885185;28;86248;-80
2022/12/19 09:13:46;;;;;;;35.75;14.85;;;5.20;86.60;;;;;;4896136;28;87389;-80
2022/12/19 09:16:20;;;;;;;34.80;14.88;;;5.20;87.70;;;;;;4893247;28;86217;-80
2022/12/19 09:18:49;;;;;;;36.33;15.45;;;5.30;87.40;;;;;;4896467;28;87075;-80
2022/12/19 09:21:15;;;;;;;219.43;91.53;;;5.50;86.90;;;;;;4897542;28;86453;-80
2022/12/19 09:23:55;;;;;;;125.18;56.05;;;5.60;85.70;;;;;;4891118;28;87371;-79
2022/12/19 09:26:22;;;;;;;97.43;44.40;;;5.80;86.40;;;;;;4890996;28;87033;-79
2022/12/19 09:28:48;;;;;;;48.08;20.83;;;5.80;85.80;;;;;;4886937;28;86223;-80
2022/12/19 09:31:23;;;;;;;40.95;17.08;;;5.70;85.90;;;;;;4891403;28;86707;-80
2022/12/19 09:33:49;;;;;;;37.13;16.48;;;5.90;86.00;;;;;;4891687;28;88373;-80
2022/12/19 09:36:19;;;;;;;35.55;15.27;;;6.00;85.60;;;;;;4890356;28;88007;-80
2022/12/19 09:38:45;;;;;;;34.33;15.27;;;6.20;85.10;;;;;;4887526;28;86838;-82
2022/12/19 09:41:29;;;;;;;35.45;16.30;;;6.30;84.30;;;;;;4896694;28;86281;-80
2022/12/19 09:44:20;;;;;;;38.95;16.58;;;6.40;83.60;;;;;;4884927;28;87357;-79
2022/12/19 09:46:51;;;;;;;40.65;16.48;;;6.40;84.10;;;;;;4891558;28;86843;-80
2022/12/19 09:49:20;;;;;;;40.80;16.85;;;6.60;83.90;;;;;;4901408;28;86586;-80
2022/12/19 09:51:56;;;;;;;38.50;17.15;;;6.70;82.80;;;;;;4891211;28;85785;-79
2022/12/19 09:54:24;;;;;;;42.50;16.25;;;7.00;82.10;;;;;;4890848;28;87108;-80
2022/12/19 09:56:56;;;;;;;42.63;17.73;;;7.10;81.20;;;;;;4897588;28;86853;-83
2022/12/19 09:59:32;;;;;;;42.03;16.10;;;7.20;81.40;;;;;;4899642;28;87825;-82
2022/12/19 10:02:24;;;;;;;41.25;15.65;;;7.10;81.40;;;;;;4896811;28;86613;-79
2022/12/19 10:05:05;;;;;;;34.55;15.90;;;7.00;81.90;;;;;;4889309;28;87276;-81
2022/12/19 10:07:31;;;;;;;39.00;17.40;;;6.90;81.80;;;;;;4897031;28;86323;-82
2022/12/19 10:09:56;;;;;;;39.40;17.25;;;6.80;82.40;;;;;;4897516;28;86173;-79
2022/12/19 10:12:28;;;;;;;39.28;17.48;;;6.80;81.60;;;;;;4893023;28;86712;-81
2022/12/19 10:15:02;;;;;;;40.55;16.13;;;6.60;82.10;;;;;;4901937;28;88341;-81
2022/12/19 10:18:12;;;;;;;38.92;16.75;;;6.70;82.60;;;;;;4897990;28;86914;-81
2022/12/19 10:20:40;;;;;;;;;;;6.60;82.50;;;;;;4856465;29;87215;-81
2022/12/19 10:23:43;;;;;;;37.17;15.35;;;6.60;83.50;;;;;;4900017;28;86187;-81
2022/12/19 10:26:41;;;;;;;38.95;16.33;;;6.70;82.40;;;;;;4899276;28;88651;-81
2022/12/19 10:29:09;;;;;;;41.88;15.00;;;6.80;82.00;;;;;;4901110;28;87845;-83
2022/12/19 10:31:48;;;;;;;45.47;17.17;;;7.00;81.70;;;;;;4898661;28;86299;-81
2022/12/19 10:34:21;;;;;;;37.78;15.57;;;7.10;81.70;;;;;;4900037;28;86248;-80
2022/12/19 10:40:33;;;;;;;37.85;16.08;;;7.20;80.70;;;;;;4903867;28;86187;-79
2022/12/19 10:43:10;;;;;;;34.92;15.63;;;7.20;80.30;;;;;;4904130;28;86251;-79
2022/12/19 10:45:49;;;;;;;34.05;16.05;;;7.00;80.50;;;;;;4893807;28;85788;-79
2022/12/19 10:48:20;;;;;;;37.25;16.90;;;7.10;81.20;;;;;;4898116;28;87884;-79
2022/12/19 10:50:46;;;;;;;35.03;15.85;;;7.20;81.00;;;;;;4903608;28;86433;-80
2022/12/19 10:53:13;;;;;;;39.78;17.20;;;7.00;80.90;;;;;;4891156;28;87329;-78
2022/12/19 10:55:47;;;;;;;41.90;17.83;;;7.10;80.90;;;;;;4901378;28;86213;-79
2022/12/19 10:58:30;;;;;;;35.13;16.33;;;7.10;80.60;;;;;;4903307;28;87568;-82
2022/12/19 11:01:03;;;;;;;39.08;15.50;;;7.10;81.30;;;;;;4897067;28;87589;-79
2022/12/19 11:03:30;;;;;;;37.40;16.60;;;7.20;85.30;;;;;;4897299;28;86954;-79
2022/12/19 11:05:57;;;;;;;36.15;15.43;;;7.40;80.80;;;;;;4899235;28;86299;-79
2022/12/19 11:08:27;;;;;;;41.58;17.02;;;7.40;80.00;;;;;;4901712;28;87808;-79
2022/12/19 11:11:12;;;;;;;41.08;16.55;;;7.50;80.20;;;;;;4898664;28;86322;-80
2022/12/19 11:13:44;;;;;;;40.35;17.52;;;7.40;79.60;;;;;;4904522;28;86337;-79
2022/12/19 11:16:11;;;;;;;37.53;16.58;;;7.40;80.40;;;;;;4875917;28;86671;-79
2022/12/19 11:18:45;;;;;;;39.17;16.35;;;7.30;80.50;;;;;;4892807;28;87775;-80
2022/12/19 11:21:20;;;;;;;37.00;17.30;;;7.30;80.20;;;;;;4901032;28;87524;-82
2022/12/19 11:23:54;;;;;;;36.47;15.48;;;7.40;80.90;;;;;;4889487;28;86469;-80
2022/12/19 11:26:43;;;;;;;37.83;16.30;;;7.60;79.90;;;;;;4885999;28;87082;-80
2022/12/19 11:29:22;;;;;;;36.95;16.38;;;7.60;79.80;;;;;;4898778;28;87251;-80
2022/12/19 11:32:00;;;;;;;36.05;16.98;;;7.60;79.40;;;;;;4892771;28;86782;-80
2022/12/19 11:34:35;;;;;;;38.25;16.80;;;7.60;79.10;;;;;;4890324;28;86879;-81
2022/12/19 11:37:13;;;;;;;37.65;16.92;;;7.60;79.40;;;;;;4904014;28;85815;-79
2022/12/19 11:40:00;;;;;;;43.08;17.73;;;7.60;80.20;;;;;;4894721;28;87168;-79
2022/12/19 11:42:48;;;;;;;40.38;18.17;;;7.60;79.50;;;;;;4898167;28;87485;-81
2022/12/19 11:45:25;;;;;;;42.72;18.70;;;7.70;79.70;;;;;;4902529;28;89586;-80
2022/12/19 11:48:03;;;;;;;35.42;17.42;;;7.70;79.40;;;;;;4889316;28;87153;-80
2022/12/19 11:50:30;;;;;;;37.78;16.58;;;7.80;78.80;;;;;;4892457;28;87121;-81
2022/12/19 11:53:22;;;;;;;40.55;17.65;;;7.70;79.10;;;;;;4897995;28;86810;-80
2022/12/19 11:56:15;;;;;;;39.22;17.02;;;7.80;79.30;;;;;;4895259;28;86905;-80
2022/12/19 11:58:47;;;;;;;40.15;17.95;;;7.70;78.70;;;;;;4892019;28;87188;-81
2022/12/19 12:01:34;;;;;;;37.38;15.80;;;7.70;79.00;;;;;;4897554;28;87998;-83
2022/12/19 12:04:06;;;;;;;33.65;15.45;;;7.50;79.20;;;;;;4893200;28;87520;-81
2022/12/19 12:06:37;;;;;;;27.42;12.65;;;7.40;80.00;;;;;;4897894;28;86904;-81
2022/12/19 12:09:17;;;;;;;27.15;12.27;;;7.40;79.80;;;;;;4898239;28;86501;-80
2022/12/19 12:11:55;;;;;;;25.25;11.60;;;7.40;80.60;;;;;;4888091;28;88943;-84
2022/12/19 12:14:46;;;;;;;29.13;12.10;;;7.50;79.90;;;;;;4890492;28;87755;-80
2022/12/19 12:17:31;;;;;;;31.23;13.07;;;7.50;79.70;;;;;;4898925;28;86167;-79
2022/12/19 12:20:24;;;;;;;30.75;13.13;;;7.50;80.10;;;;;;4892446;28;86673;-80
2022/12/19 12:23:47;;;;;;;30.17;12.55;;;7.50;80.20;;;;;;4896726;28;87806;-81
2022/12/19 12:26:39;;;;;;;29.02;12.48;;;7.30;81.10;;;;;;4824479;29;87022;-80
2022/12/19 12:29:20;;;;;;;31.42;12.60;;;7.30;81.20;;;;;;4825702;29;86866;-79
2022/12/19 12:32:00;;;;;;;32.58;13.85;;;7.20;81.00;;;;;;4878420;28;86154;-79
2022/12/19 12:34:44;;;;;;;28.63;12.63;;;7.10;81.80;;;;;;4900195;28;87809;-79
2022/12/19 12:37:13;;;;;;;28.88;11.65;;;7.00;81.90;;;;;;4894957;28;87490;-80
2022/12/19 12:39:46;;;;;;;29.27;12.52;;;6.90;82.50;;;;;;4894527;28;87816;-79
2022/12/19 12:42:17;;;;;;;29.92;13.23;;;6.90;82.70;;;;;;4898839;28;86682;-79
2022/12/19 12:44:45;;;;;;;30.33;12.77;;;6.90;83.50;;;;;;4898493;28;86780;-79
2022/12/19 12:47:17;;;;;;;26.73;12.00;;;6.80;82.80;;;;;;4896408;28;86931;-82
2022/12/19 12:49:51;;;;;;;31.70;13.40;;;6.80;83.20;;;;;;4893503;28;86305;-79
2022/12/19 12:52:27;;;;;;;30.30;13.10;;;6.70;83.10;;;;;;4893974;28;86322;-80
2022/12/19 12:54:54;;;;;;;30.58;13.57;;;6.50;83.70;;;;;;4887279;28;87045;-80
2022/12/19 12:57:33;;;;;;;33.53;14.68;;;6.40;85.00;;;;;;4893822;28;87490;-80
2022/12/19 13:00:32;;;;;;;34.35;14.73;;;6.50;84.60;;;;;;4894131;28;86274;-80
2022/12/19 13:03:04;;;;;;;37.03;15.48;;;6.50;84.70;;;;;;4842874;28;86783;-82
2022/12/19 13:05:50;;;;;;;36.47;16.42;;;6.40;84.20;;;;;;4896696;28;87595;-80
2022/12/19 13:08:36;;;;;;;37.75;16.48;;;6.20;84.90;;;;;;4893275;28;87378;-79
2022/12/19 13:14:48;;;;;;;40.00;16.95;;;6.20;84.70;;;;;;4894456;28;86770;-80
2022/12/19 13:17:18;;;;;;;36.03;14.55;;;6.20;85.10;;;;;;4863659;29;87367;-79
2022/12/19 13:19:56;;;;;;;33.97;14.25;;;6.30;84.70;;;;;;4851798;29;86719;-80
2022/12/19 13:23:01;;;;;;;33.30;13.68;;;6.30;84.40;;;;;;4871141;28;86839;-79
2022/12/19 13:25:29;;;;;;;30.08;13.73;;;6.30;85.20;;;;;;4887818;28;85976;-80
2022/12/19 13:28:21;;;;;;;33.90;15.00;;;6.30;86.30;;;;;;4893676;28;87833;-81
2022/12/19 13:31:05;;;;;;;38.00;15.65;;;6.40;86.50;;;;;;4892773;28;87637;-81
2022/12/19 13:33:53;;;;;;;31.65;14.00;;;6.50;86.60;;;;;;4889246;28;87851;-79
2022/12/19 13:36:43;;;;;;;36.97;14.70;;;6.60;86.10;;;;;;4900414;28;86381;-79
2022/12/19 13:39:25;;;;;;;58.92;22.67;;;6.70;85.50;;;;;;4902824;28;87047;-79
2022/12/19 13:45:12;;;;;;;36.30;16.50;;;6.80;85.00;;;;;;4890246;28;86631;-80
2022/12/19 13:47:42;;;;;;;30.45;13.07;;;6.80;84.30;;;;;;4904037;28;86823;-79
2022/12/19 13:50:25;;;;;;;32.72;13.82;;;6.70;82.90;;;;;;4900164;28;86918;-78
2022/12/19 13:52:51;;;;;;;32.70;13.82;;;6.60;83.20;;;;;;4906040;28;87518;-80
2022/12/19 13:55:18;;;;;;;28.88;13.85;;;6.40;83.00;;;;;;4903638;28;86697;-83
2022/12/19 13:57:48;;;;;;;27.27;12.93;;;6.40;83.40;;;;;;4891644;28;86475;-79
2022/12/19 14:00:28;;;;;;;29.02;12.50;;;6.30;83.80;;;;;;4896343;28;88561;-78
2022/12/19 14:02:55;;;;;;;29.10;12.68;;;6.20;83.60;;;;;;4906091;28;88402;-79
2022/12/19 14:05:23;;;;;;;31.15;12.88;;;6.00;84.10;;;;;;4903376;28;86484;-79
2022/12/19 14:07:51;;;;;;;29.02;12.65;;;6.00;84.40;;;;;;4899503;28;86245;-79
2022/12/19 14:10:28;;;;;;;26.80;12.73;;;5.90;84.60;;;;;;4894761;28;87719;-79
2022/12/19 14:15:44;;;;;;;28.13;11.52;;;5.80;85.40;;;;;;4894659;28;86697;-77
2022/12/19 14:18:23;;;;;;;29.80;10.77;;;5.60;85.30;;;;;;4896902;28;86324;-77
2022/12/19 14:20:51;;;;;;;25.73;10.30;;;5.60;85.70;;;;;;4901691;28;87050;-77
2022/12/19 14:23:17;;;;;;;27.73;11.65;;;5.50;85.50;;;;;;4902790;28;87063;-78
2022/12/19 14:25:49;;;;;;;28.50;10.65;;;5.50;86.00;;;;;;4894686;28;87634;-78
2022/12/19 14:28:21;;;;;;;27.50;11.40;;;5.50;86.60;;;;;;4897638;28;86711;-79
2022/12/19 14:30:52;;;;;;;28.73;12.93;;;5.60;87.00;;;;;;4892797;28;86975;-78
2022/12/19 14:33:23;;;;;;;31.75;13.35;;;5.60;87.90;;;;;;4896206;28;87835;-77
2022/12/19 14:35:53;;;;;;;36.78;14.90;;;5.60;89.00;;;;;;4894629;28;87430;-82
2022/12/19 14:38:22;;;;;;;37.80;15.68;;;5.60;89.20;;;;;;4899567;28;86541;-78
2022/12/19 14:40:47;;;;;;;39.17;15.68;;;5.60;89.20;;;;;;4908631;28;86993;-77
2022/12/19 14:46:24;;;;;;;57.15;21.92;;;5.60;89.10;;;;;;4901835;28;87069;-78
2022/12/19 14:48:56;;;;;;;;;;;5.50;89.50;;;;;;4905785;28;86432;-78
2022/12/19 14:51:36;;;;;;;47.45;18.38;;;5.50;89.60;;;;;;4900325;28;87734;-78
2022/12/19 14:54:10;;;;;;;46.13;19.10;;;5.30;90.00;;;;;;4889838;28;88463;-79
2022/12/19 14:56:59;;;;;;;42.85;18.02;;;5.20;90.50;;;;;;4893525;28;86457;-79
2022/12/19 14:59:40;;;;;;;43.60;18.70;;;5.20;90.50;;;;;;4892038;28;86867;-79
2022/12/19 15:02:06;;;;;;;53.88;21.60;;;5.20;90.40;;;;;;4890387;28;87069;-78
2022/12/19 15:04:38;;;;;;;43.45;18.88;;;5.00;90.60;;;;;;4887336;28;87050;-79
2022/12/19 15:07:14;;;;;;;38.42;16.13;;;4.90;90.90;;;;;;4895671;28;86771;-78
2022/12/19 15:09:43;;;;;;;39.35;16.65;;;4.90;91.10;;;;;;4894050;28;85883;-78
2022/12/19 15:15:16;;;;;;;42.78;17.25;;;4.80;91.20;;;;;;4889846;28;86484;-79
2022/12/19 15:17:48;;;;;;;45.28;17.63;;;4.70;91.20;;;;;;4893945;28;88511;-84
2022/12/19 15:20:13;;;;;;;44.53;16.33;;;4.70;91.50;;;;;;4896426;28;87978;-77
2022/12/19 15:22:39;;;;;;;37.95;15.93;;;4.70;91.70;;;;;;4902784;28;87148;-79
2022/12/19 15:25:05;;;;;;;37.33;15.52;;;4.70;91.70;;;;;;4901653;28;88581;-81
2022/12/19 15:27:31;;;;;;;33.10;14.10;;;4.60;91.70;;;;;;4896520;28;86710;-79
2022/12/19 15:29:57;;;;;;;37.50;15.50;;;4.60;91.90;;;;;;4886835;28;86956;-79
2022/12/19 15:32:23;;;;;;;39.70;15.35;;;4.50;92.10;;;;;;4885997;28;87976;-78
2022/12/19 15:34:48;;;;;;;39.47;15.63;;;4.50;92.10;;;;;;4902207;28;87750;-78
2022/12/19 15:37:15;;;;;;;36.65;16.10;;;4.50;92.10;;;;;;4894834;28;86667;-79
2022/12/19 15:39:42;;;;;;;47.60;16.83;;;4.40;92.50;;;;;;4894064;28;86659;-79
2022/12/19 15:42:23;;;;;;;41.80;17.02;;;4.30;92.40;;;;;;4896187;28;87847;-79
2022/12/19 15:44:52;;;;;;;41.50;15.52;;;4.20;92.70;;;;;;4900575;28;87800;-79
2022/12/19 15:47:31;;;;;;;37.58;15.60;;;4.20;92.80;;;;;;4904609;28;86528;-82
2022/12/19 15:50:01;;;;;;;37.75;15.88;;;4.10;92.90;;;;;;4902661;28;86859;-78
2022/12/19 15:52:27;;;;;;;38.60;15.20;;;4.10;92.90;;;;;;4901626;28;87398;-78
2022/12/19 15:54:55;;;;;;;39.03;15.57;;;4.00;93.30;;;;;;4902138;28;87475;-78
2022/12/19 15:57:32;;;;;;;37.25;14.82;;;3.90;93.10;;;;;;4901286;28;86972;-80
2022/12/19 16:00:00;;;;;;;;;;;3.80;93.10;;;;;;4898532;28;85901;-77
2022/12/19 16:02:26;;;;;;;39.97;14.50;;;3.70;93.40;;;;;;4895448;28;86615;-79
2022/12/19 16:04:52;;;;;;;35.13;14.48;;;3.70;94.10;;;;;;4894389;28;86358;-77
2022/12/19 16:07:22;;;;;;;40.58;16.25;;;3.70;94.20;;;;;;4895766;28;87231;-77
2022/12/19 16:09:48;;;;;;;29.27;14.18;;;3.60;94.00;;;;;;4893076;28;86501;-79
2022/12/19 16:12:49;;;;;;;28.58;11.95;;;3.60;94.00;;;;;;4897991;28;86754;-79
2022/12/19 16:15:25;;;;;;;31.35;12.15;;;3.50;94.30;;;;;;4883108;28;88637;-77
2022/12/19 16:17:51;;;;;;;29.17;12.07;;;3.40;94.50;;;;;;4887343;28;86297;-79
2022/12/19 16:20:20;;;;;;;25.48;10.40;;;3.40;94.60;;;;;;4894066;28;86940;-78
2022/12/19 16:22:46;;;;;;;25.52;10.52;;;3.40;94.70;;;;;;4888934;28;87663;-79
2022/12/19 16:25:13;;;;;;;26.13;10.75;;;3.40;94.70;;;;;;4900849;28;87191;-77
2022/12/19 16:27:40;;;;;;;26.35;10.15;;;3.40;94.70;;;;;;4896868;28;86368;-80
2022/12/19 16:30:39;;;;;;;22.05;9.52;;;3.40;94.80;;;;;;4890598;28;87040;-80
2022/12/19 16:33:13;;;;;;;22.77;10.23;;;3.30;94.80;;;;;;4902585;28;87576;-79
2022/12/19 16:35:38;;;;;;;25.85;9.98;;;3.30;94.90;;;;;;4898809;28;88144;-79
2022/12/19 16:38:04;;;;;;;22.13;9.73;;;3.20;94.90;;;;;;4894921;28;86686;-79
2022/12/19 16:40:29;;;;;;;24.80;10.15;;;3.30;94.90;;;;;;4902836;28;86933;-79
2022/12/19 16:43:04;;;;;;;24.23;10.35;;;3.20;95.10;;;;;;4889199;28;86968;-79
2022/12/19 16:45:32;;;;;;;25.70;10.80;;;3.20;95.30;;;;;;4891737;28;86565;-79
2022/12/19 16:47:58;;;;;;;25.67;10.85;;;3.20;95.30;;;;;;4894936;28;86977;-79
2022/12/19 16:50:29;;;;;;;22.73;9.60;;;3.20;95.50;;;;;;4903908;28;86112;-80
2022/12/19 16:52:56;;;;;;;22.98;9.90;;;3.20;95.70;;;;;;4896893;28;86761;-78
2022/12/19 16:55:24;;;;;;;24.08;10.57;;;3.20;95.70;;;;;;4892009;28;87856;-78
2022/12/19 16:57:53;;;;;;;24.83;10.20;;;3.20;95.80;;;;;;4890982;28;87294;-78
2022/12/19 17:00:21;;;;;;;23.27;9.98;;;3.30;95.80;;;;;;4887297;28;87045;-77
2022/12/19 17:02:57;;;;;;;22.73;9.38;;;3.30;95.80;;;;;;4899957;28;87979;-80
2022/12/19 17:05:26;;;;;;;25.15;9.98;;;3.30;95.90;;;;;;4898811;28;86953;-78
2022/12/19 17:07:53;;;;;;;22.20;9.57;;;3.30;95.90;;;;;;4891789;28;86507;-78